createdAt,value
2022-08-19T05:39:39.371Z,2.67
2022-08-19T05:42:09.163Z,2.97
2022-08-19T05:44:39.286Z,3.88
2022-08-19T05:47:07.562Z,4.28
2022-08-19T05:49:35.246Z,4.95
2022-08-19T05:52:11.764Z,4.18
2022-08-19T05:54:43.796Z,3.95
2022-08-19T05:57:11.730Z,4.00
2022-08-19T05:59:39.938Z,3.50
2022-08-19T06:02:07.567Z,3.90
2022-08-19T06:04:35.254Z,3.88
2022-08-19T06:07:12.581Z,4.43
2022-08-19T06:09:40.508Z,3.97
2022-08-19T06:12:07.571Z,4.53
2022-08-19T06:14:40.189Z,4.10
2022-08-19T06:17:08.632Z,4.10
2022-08-19T06:19:40.920Z,4.40
2022-08-19T06:22:08.430Z,4.20
2022-08-19T06:24:36.204Z,4.20
2022-08-19T06:27:06.512Z,4.20
2022-08-19T06:29:33.691Z,4.55
2022-08-19T06:32:04.071Z,4.85
2022-08-19T06:34:33.588Z,5.28
2022-08-19T06:37:04.562Z,4.90
2022-08-19T06:39:33.881Z,5.97
2022-08-19T06:42:02.399Z,5.20
2022-08-19T06:44:35.381Z,4.53
2022-08-19T06:47:14.332Z,5.05
2022-08-19T06:49:42.021Z,4.13
2022-08-19T06:52:09.221Z,4.22
2022-08-19T06:54:53.717Z,4.13
2022-08-19T06:57:23.460Z,4.22
2022-08-19T06:59:50.069Z,4.38
2022-08-19T07:05:04.628Z,5.77
2022-08-19T07:07:33.662Z,4.90
2022-08-19T07:10:02.026Z,4.43
2022-08-19T07:12:38.174Z,4.95
2022-08-19T07:15:06.388Z,5.30
2022-08-19T07:17:34.650Z,4.50
2022-08-19T07:20:06.775Z,4.72
2022-08-19T07:22:35.008Z,4.82
2022-08-19T07:25:03.932Z,5.55
2022-08-19T07:27:30.831Z,5.72
2022-08-19T07:30:00.853Z,5.40
2022-08-19T07:32:27.889Z,6.45
2022-08-19T07:34:55.263Z,7.82
2022-08-19T07:37:23.292Z,6.72
2022-08-19T07:39:49.901Z,6.45
2022-08-19T07:42:18.125Z,6.68
2022-08-19T07:44:50.103Z,6.72
2022-08-19T07:47:49.207Z,8.15
2022-08-19T07:50:09.011Z,7.00
2022-08-19T07:52:37.276Z,8.63
2022-08-19T07:55:05.356Z,7.82
2022-08-19T07:57:32.269Z,8.05
2022-08-19T07:59:59.697Z,7.60
2022-08-19T08:02:26.223Z,8.60
2022-08-19T08:05:10.980Z,8.63
2022-08-19T08:07:56.142Z,8.02
2022-08-19T08:10:24.445Z,8.02
2022-08-19T08:13:05.854Z,7.72
2022-08-19T08:15:42.122Z,8.88
2022-08-19T08:18:09.493Z,7.57
2022-08-19T08:20:36.179Z,7.57
2022-08-19T08:23:21.063Z,7.57
2022-08-19T08:25:49.368Z,7.53
2022-08-19T08:28:19.865Z,7.97
2022-08-19T08:30:49.177Z,7.47
2022-08-19T08:33:33.294Z,7.05
2022-08-19T08:36:11.929Z,7.47
2022-08-19T08:38:40.797Z,7.88
2022-08-19T08:41:43.486Z,7.03
2022-08-19T08:44:19.960Z,6.82
2022-08-19T08:46:52.964Z,7.18
2022-08-19T08:49:30.046Z,6.88
2022-08-19T08:52:11.088Z,6.53
2022-08-19T08:54:54.782Z,6.68
2022-08-19T09:00:01.379Z,6.90
2022-08-19T09:02:27.878Z,5.60
2022-08-19T09:04:56.102Z,5.15
2022-08-19T09:08:04.153Z,5.85
2022-08-19T09:10:55.337Z,4.57
2022-08-19T09:13:26.776Z,4.50
2022-08-19T09:16:02.561Z,4.70
2022-08-19T09:18:41.794Z,4.35
2022-08-19T09:21:09.794Z,4.70
2022-08-19T09:23:37.742Z,4.65
2022-08-19T09:26:14.582Z,4.70
2022-08-19T09:28:45.465Z,4.03
2022-08-19T09:31:18.012Z,3.97
2022-08-19T09:33:44.803Z,4.35
2022-08-19T09:36:14.794Z,4.45
2022-08-19T09:38:56.806Z,4.65
2022-08-19T09:41:25.911Z,4.75
2022-08-19T09:43:57.242Z,4.50
2022-08-19T09:46:27.027Z,4.43
2022-08-19T09:48:54.552Z,3.80
2022-08-19T09:51:27.263Z,2.80
2022-08-19T09:53:57.843Z,2.75
2022-08-19T09:56:24.579Z,2.47
2022-08-19T09:58:51.590Z,2.97
2022-08-19T10:01:24.434Z,2.78
2022-08-19T10:03:55.711Z,2.47
2022-08-19T10:06:44.052Z,2.80
2022-08-19T10:09:11.975Z,2.58
2022-08-19T10:11:46.901Z,2.75
2022-08-19T10:14:23.502Z,2.15
2022-08-19T10:16:50.470Z,1.70
2022-08-19T10:19:26.149Z,2.20
2022-08-19T10:21:54.003Z,2.17
2022-08-19T10:24:21.701Z,2.30
2022-08-19T10:26:57.088Z,2.10
2022-08-19T10:29:32.553Z,2.42
2022-08-19T10:32:09.653Z,2.13
2022-08-19T10:37:15.039Z,2.17
2022-08-19T10:39:48.954Z,2.08
2022-08-19T10:42:17.154Z,2.55
2022-08-19T10:44:43.700Z,1.98
2022-08-19T10:47:17.610Z,2.22
2022-08-19T10:50:11.986Z,1.95
2022-08-19T10:52:39.642Z,1.92
2022-08-19T10:55:34.854Z,1.83
2022-08-19T10:58:02.853Z,1.70
2022-08-19T11:00:30.142Z,1.52
2022-08-19T11:02:56.827Z,1.50
2022-08-19T11:05:24.304Z,1.35
2022-08-19T11:07:52.966Z,1.23
2022-08-19T11:10:22.491Z,1.45
2022-08-19T11:12:49.558Z,1.50
2022-08-19T11:15:16.849Z,1.73
2022-08-19T11:17:44.489Z,1.30
2022-08-19T11:20:15.906Z,1.50
2022-08-19T11:22:43.276Z,1.30
2022-08-19T11:25:11.802Z,1.30
2022-08-19T11:27:42.594Z,1.15
2022-08-19T11:30:13.127Z,1.25
2022-08-19T11:32:43.591Z,1.30
2022-08-19T11:35:14.599Z,1.00
2022-08-19T11:37:41.750Z,1.10
2022-08-19T11:40:09.350Z,1.20
2022-08-19T11:42:54.869Z,1.10
2022-08-19T11:45:21.980Z,0.95
2022-08-19T11:47:48.890Z,1.20
2022-08-19T11:50:16.534Z,1.33
2022-08-19T11:52:44.863Z,1.60
2022-08-19T11:55:12.638Z,1.20
2022-08-19T11:57:41.894Z,1.20
2022-08-19T12:00:10.672Z,1.00
2022-08-19T12:02:37.199Z,1.10
2022-08-19T12:05:04.976Z,0.90
2022-08-19T12:07:34.674Z,1.17
2022-08-19T12:10:01.712Z,1.20
2022-08-19T12:12:30.308Z,1.20
2022-08-19T12:14:59.207Z,1.00
2022-08-19T12:17:27.732Z,1.10
2022-08-19T12:19:54.877Z,1.02
2022-08-19T12:22:22.414Z,0.93
2022-08-19T12:24:51.193Z,1.05
2022-08-19T12:27:23.897Z,1.15
2022-08-19T12:30:04.040Z,1.25
2022-08-19T12:32:30.632Z,1.23
2022-08-19T12:34:57.219Z,0.95
2022-08-19T12:37:23.912Z,1.10
2022-08-19T12:39:50.553Z,1.40
2022-08-19T12:42:17.912Z,1.10
2022-08-19T12:44:45.148Z,1.15
2022-08-19T12:47:15.352Z,1.02
2022-08-19T12:49:54.671Z,0.95
2022-08-19T12:52:24.065Z,1.00
2022-08-19T12:54:54.690Z,1.05
2022-08-19T12:57:23.706Z,0.98
2022-08-19T12:59:58.138Z,1.20
2022-08-19T13:02:24.653Z,1.20
2022-08-19T13:04:51.125Z,1.02
2022-08-19T13:07:17.621Z,1.20
2022-08-19T13:09:44.153Z,0.90
2022-08-19T13:12:14.077Z,0.98
2022-08-19T13:14:41.352Z,1.10
2022-08-19T13:17:09.313Z,0.95
2022-08-19T13:19:37.717Z,0.88
2022-08-19T13:22:04.445Z,1.13
2022-08-19T13:24:41.085Z,0.82
2022-08-19T13:27:09.431Z,1.08
2022-08-19T13:29:54.629Z,0.88
2022-08-19T13:32:40.051Z,1.02
2022-08-19T13:35:09.572Z,1.00
2022-08-19T13:37:43.793Z,0.80
2022-08-19T13:40:19.892Z,1.10
2022-08-19T13:45:19.009Z,0.80
2022-08-19T13:47:48.234Z,0.80
2022-08-19T13:50:18.545Z,0.90
2022-08-19T13:52:45.502Z,0.85
2022-08-19T13:55:13.411Z,1.10
2022-08-19T13:57:40.346Z,0.98
2022-08-19T14:00:19.239Z,1.10
2022-08-19T14:02:47.478Z,0.77
2022-08-19T14:05:17.350Z,1.88
2022-08-19T14:07:43.849Z,0.90
2022-08-19T14:10:12.370Z,1.00
2022-08-19T14:12:39.090Z,1.05
2022-08-19T14:15:07.947Z,1.17
2022-08-19T14:17:35.838Z,1.00
2022-08-19T14:20:10.864Z,1.00
2022-08-19T14:22:41.427Z,0.93
2022-08-19T14:25:15.514Z,0.80
2022-08-19T14:27:42.555Z,0.85
2022-08-19T14:30:11.933Z,0.88
2022-08-19T14:32:38.634Z,0.73
2022-08-19T14:35:06.368Z,0.90
2022-08-19T14:37:35.049Z,0.80
2022-08-19T14:40:13.235Z,0.80
2022-08-19T14:42:39.845Z,0.82
2022-08-19T14:45:07.133Z,1.15
2022-08-19T14:47:34.122Z,0.90
2022-08-19T14:50:00.841Z,1.00
2022-08-19T14:52:32.093Z,0.90
2022-08-19T14:54:58.597Z,1.00
2022-08-19T14:57:25.165Z,1.70
2022-08-19T14:59:51.679Z,1.40
2022-08-19T15:02:34.230Z,1.52
2022-08-19T15:05:01.683Z,1.20
2022-08-19T15:07:29.595Z,1.08
2022-08-19T15:09:57.313Z,1.10
2022-08-19T15:12:24.899Z,1.25
2022-08-19T15:14:55.929Z,1.08
2022-08-19T15:17:25.760Z,1.13
2022-08-19T15:22:37.570Z,1.05
2022-08-19T15:25:05.850Z,1.00
2022-08-19T15:27:32.858Z,1.05
2022-08-19T15:30:01.139Z,1.00
2022-08-19T15:32:29.099Z,0.88
2022-08-19T15:34:55.814Z,0.88
2022-08-19T15:37:24.023Z,1.05
2022-08-19T15:39:51.203Z,1.00
2022-08-19T15:42:29.558Z,0.90
2022-08-19T15:45:00.653Z,1.20
2022-08-19T15:47:35.472Z,1.13
2022-08-19T15:50:18.683Z,1.08
2022-08-19T15:52:54.528Z,0.93
2022-08-19T15:55:32.700Z,1.10
2022-08-19T15:58:32.644Z,1.05
2022-08-19T16:01:24.350Z,0.98
2022-08-19T16:04:14.494Z,1.55
2022-08-19T16:06:48.247Z,1.02
2022-08-19T16:09:16.508Z,1.40
2022-08-19T16:11:45.835Z,1.92
2022-08-19T16:14:14.696Z,1.00
2022-08-19T16:16:41.268Z,1.10
2022-08-19T16:19:10.357Z,0.90
2022-08-19T16:21:41.922Z,0.88
2022-08-19T16:24:12.051Z,1.00
2022-08-19T16:26:39.167Z,1.02
2022-08-19T16:29:09.022Z,1.00
2022-08-19T16:31:43.628Z,1.10
2022-08-19T16:34:11.476Z,0.85
2022-08-19T16:36:42.218Z,0.90
2022-08-19T16:39:14.476Z,1.00
2022-08-19T16:41:42.749Z,1.10
2022-08-19T16:44:11.964Z,1.13
2022-08-19T16:46:40.298Z,1.25
2022-08-19T16:49:07.085Z,0.90
2022-08-19T16:51:33.869Z,1.00
2022-08-19T16:54:01.821Z,0.93
2022-08-19T16:56:29.001Z,1.10
2022-08-19T16:58:56.264Z,7.75
2022-08-19T17:01:22.844Z,153.98
2022-08-19T17:03:50.561Z,142.70
2022-08-19T17:06:20.821Z,57.63
2022-08-19T17:08:54.504Z,24.42
2022-08-19T17:11:24.408Z,12.15
2022-08-19T17:13:51.429Z,5.72
2022-08-19T17:16:20.010Z,3.22
2022-08-19T17:18:46.556Z,2.25
2022-08-19T17:21:13.295Z,2.00
2022-08-19T17:23:42.686Z,1.23
2022-08-19T17:26:14.019Z,1.30
2022-08-19T17:28:46.193Z,1.20
2022-08-19T17:31:12.683Z,1.10
2022-08-19T17:33:41.279Z,1.20
2022-08-19T17:36:09.126Z,1.55
2022-08-19T17:38:36.892Z,1.10
2022-08-19T17:41:06.402Z,1.02
2022-08-19T17:43:40.006Z,1.00
2022-08-19T17:46:11.145Z,1.20
2022-08-19T17:48:38.934Z,0.98
2022-08-19T17:51:22.019Z,1.15
2022-08-19T17:53:50.850Z,1.00
2022-08-19T17:56:17.550Z,1.10
2022-08-19T17:58:45.009Z,1.52
2022-08-19T18:01:24.734Z,1.08
2022-08-19T18:03:52.827Z,1.60
2022-08-19T18:06:19.338Z,1.45
2022-08-19T18:08:49.096Z,1.08
2022-08-19T18:11:16.931Z,1.20
2022-08-19T18:13:43.474Z,1.40
2022-08-19T18:16:11.329Z,1.35
2022-08-19T18:18:41.997Z,1.17
2022-08-19T18:21:10.014Z,1.17
2022-08-19T18:23:44.201Z,1.30
2022-08-19T18:26:12.452Z,1.33
2022-08-19T18:28:39.901Z,1.35
2022-08-19T18:31:17.221Z,1.30
2022-08-19T18:33:44.890Z,1.15
2022-08-19T18:36:11.890Z,2.00
2022-08-19T18:38:57.084Z,1.50
2022-08-19T18:41:42.929Z,1.10
2022-08-19T18:44:28.383Z,1.25
2022-08-19T18:47:13.746Z,1.20
2022-08-19T18:49:40.596Z,1.48
2022-08-19T18:52:07.521Z,2.20
2022-08-19T18:54:34.486Z,2.08
2022-08-19T18:57:01.373Z,1.50
2022-08-19T18:59:30.218Z,1.45
2022-08-19T19:01:58.487Z,1.70
2022-08-19T19:04:36.024Z,1.40
2022-08-19T19:07:05.012Z,1.48
2022-08-19T19:09:31.588Z,1.42
2022-08-19T19:12:00.832Z,1.55
2022-08-19T19:14:48.248Z,1.38
2022-08-19T19:17:15.612Z,1.45
2022-08-19T19:19:44.091Z,1.20
2022-08-19T19:22:17.679Z,1.33
2022-08-19T19:24:44.323Z,1.30
2022-08-19T19:27:13.136Z,1.23
2022-08-19T19:29:40.923Z,1.88
2022-08-19T19:32:17.909Z,1.38
2022-08-19T19:34:45.486Z,1.25
2022-08-19T19:37:12.008Z,1.35
2022-08-19T19:39:46.391Z,1.50
2022-08-19T19:42:20.337Z,1.80
2022-08-19T19:44:49.342Z,1.40
2022-08-19T19:47:17.519Z,1.35
2022-08-19T19:50:10.779Z,1.25
2022-08-19T19:52:31.998Z,1.10
2022-08-19T19:54:58.597Z,1.40
2022-08-19T19:57:26.774Z,1.70
2022-08-19T19:59:54.298Z,1.20
2022-08-19T20:02:22.034Z,2.00
2022-08-19T20:04:49.491Z,1.55
2022-08-19T20:07:15.997Z,1.50
2022-08-19T20:09:58.778Z,1.40
2022-08-19T20:12:26.541Z,1.33
2022-08-19T20:14:53.053Z,1.80
2022-08-19T20:17:20.740Z,1.50
2022-08-19T20:19:48.013Z,1.30
2022-08-19T20:22:14.688Z,1.60
2022-08-19T20:24:42.689Z,1.27
2022-08-19T20:27:10.733Z,1.65
2022-08-19T20:29:41.550Z,1.55
2022-08-19T20:32:10.329Z,1.50
2022-08-19T20:34:37.480Z,1.25
2022-08-19T20:37:04.715Z,1.33
2022-08-19T20:39:31.267Z,1.40
2022-08-19T20:41:57.804Z,1.58
2022-08-19T20:44:25.497Z,1.48
2022-08-19T20:46:55.533Z,1.13
2022-08-19T20:49:27.461Z,1.35
2022-08-19T20:51:55.222Z,1.40
2022-08-19T20:54:21.864Z,1.20
2022-08-19T20:56:48.418Z,1.30
2022-08-19T20:59:15.002Z,1.30
2022-08-19T21:01:41.467Z,1.20
2022-08-19T21:04:07.982Z,1.35
2022-08-19T21:06:34.459Z,1.30
2022-08-19T21:09:00.969Z,1.40
2022-08-19T21:11:27.595Z,1.45
2022-08-19T21:13:54.160Z,1.52
2022-08-19T21:16:20.651Z,1.50
2022-08-19T21:18:47.847Z,1.48
2022-08-19T21:21:14.732Z,1.83
2022-08-19T21:23:41.375Z,1.65
2022-08-19T21:26:09.055Z,1.33
2022-08-19T21:28:36.367Z,1.75
2022-08-19T21:31:05.350Z,1.55
2022-08-19T21:33:32.966Z,1.58
2022-08-19T21:36:00.213Z,1.70
2022-08-19T21:38:27.546Z,1.63
2022-08-19T21:40:54.275Z,1.35
2022-08-19T21:43:21.122Z,1.17
2022-08-19T21:45:48.348Z,1.33
2022-08-19T21:48:15.332Z,1.13
2022-08-19T21:50:43.051Z,1.38
2022-08-19T21:53:13.962Z,1.27
2022-08-19T21:55:44.196Z,1.30
2022-08-19T21:58:11.859Z,1.77
2022-08-19T22:00:39.389Z,1.48
2022-08-19T22:03:06.481Z,1.25
2022-08-19T22:05:33.948Z,1.42
2022-08-19T22:08:02.208Z,1.00
2022-08-19T22:10:32.104Z,1.40
2022-08-19T22:12:59.616Z,1.45
2022-08-19T22:15:29.835Z,1.30
2022-08-19T22:18:01.620Z,1.40
2022-08-19T22:20:30.987Z,1.42
2022-08-19T22:23:03.567Z,1.20
2022-08-19T22:25:42.049Z,1.40
2022-08-19T22:28:10.946Z,1.30
2022-08-19T22:30:41.626Z,1.40
2022-08-19T22:33:11.676Z,1.80
2022-08-19T22:35:40.464Z,1.73
2022-08-19T22:38:08.763Z,1.38
2022-08-19T22:40:39.718Z,2.15
2022-08-19T22:43:18.897Z,1.52
2022-08-19T22:45:46.710Z,1.42
2022-08-19T22:48:16.084Z,1.38
2022-08-19T22:51:05.249Z,1.33
2022-08-19T22:53:33.757Z,1.40
2022-08-19T22:56:00.569Z,1.50
2022-08-19T22:58:28.077Z,1.40
2022-08-19T23:00:54.882Z,1.63
2022-08-19T23:03:21.747Z,1.40
2022-08-19T23:05:48.266Z,1.45
2022-08-19T23:44:59.322Z,0.97
2022-08-19T23:47:25.858Z,1.20
2022-08-19T23:49:53.398Z,1.30
2022-08-19T23:52:19.960Z,1.33
2022-08-19T23:54:46.486Z,1.30
2022-08-19T23:57:14.590Z,1.25
2022-08-19T23:59:42.602Z,1.35
